createdAt,value
2023-05-28T00:00:48.417Z,79.48
2023-05-28T00:01:39.822Z,79.71
2023-05-28T00:02:33.941Z,79.52
2023-05-28T00:03:26.291Z,79.53
2023-05-28T00:04:18.018Z,79.66
2023-05-28T00:05:09.801Z,79.22
2023-05-28T00:06:01.512Z,79.31
2023-05-28T00:06:56.670Z,79.69
2023-05-28T00:07:48.216Z,79.45
2023-05-28T00:08:42.122Z,79.59
2023-05-28T00:09:35.874Z,79.60
2023-05-28T00:10:29.722Z,79.99
2023-05-28T00:11:22.672Z,79.91
2023-05-28T00:12:14.148Z,79.95
2023-05-28T00:13:05.899Z,80.22
2023-05-28T00:13:57.500Z,80.18
2023-05-28T00:14:49.434Z,80.18
2023-05-28T00:15:41.201Z,80.49
2023-05-28T00:16:36.404Z,80.58
2023-05-28T00:17:31.002Z,80.92
2023-05-28T00:18:22.695Z,81.18
2023-05-28T00:19:14.238Z,81.00
2023-05-28T00:20:06.860Z,81.47
2023-05-28T00:20:58.761Z,81.29
2023-05-28T00:21:50.226Z,81.19
2023-05-28T00:22:41.687Z,81.31
2023-05-28T00:23:33.333Z,81.52
2023-05-28T00:24:26.041Z,81.78
2023-05-28T00:25:17.586Z,81.74
2023-05-28T00:26:09.010Z,81.80
2023-05-28T00:27:00.869Z,81.90
2023-05-28T00:27:52.514Z,82.00
2023-05-28T00:28:44.023Z,81.85
2023-05-28T00:29:35.734Z,81.79
2023-05-28T00:30:27.682Z,81.94
2023-05-28T00:31:19.221Z,81.50
2023-05-28T00:32:10.708Z,81.55
2023-05-28T00:33:02.230Z,81.67
2023-05-28T00:33:53.989Z,81.71
2023-05-28T00:34:45.932Z,81.85
2023-05-28T00:35:37.493Z,81.98
2023-05-28T00:36:29.254Z,82.09
2023-05-28T00:37:21.053Z,81.93
2023-05-28T00:38:12.755Z,81.98
2023-05-28T00:39:06.008Z,82.20
2023-05-28T00:39:57.782Z,82.00
2023-05-28T00:40:51.704Z,82.11
2023-05-28T00:41:45.608Z,81.88
2023-05-28T00:42:37.282Z,82.10
2023-05-28T00:43:28.723Z,82.45
2023-05-28T00:44:20.269Z,82.57
2023-05-28T00:45:15.133Z,82.80
2023-05-28T00:46:07.994Z,82.85
2023-05-28T00:47:00.632Z,83.07
2023-05-28T00:47:55.514Z,83.29
2023-05-28T00:48:47.384Z,83.62
2023-05-28T00:49:38.796Z,83.54
2023-05-28T00:50:30.424Z,83.53
2023-05-28T00:51:22.144Z,83.61
2023-05-28T00:52:15.039Z,84.03
2023-05-28T00:53:08.055Z,83.81
2023-05-28T00:54:00.165Z,84.04
2023-05-28T00:54:52.077Z,83.92
2023-05-28T00:55:44.870Z,84.29
2023-05-28T00:56:36.676Z,84.25
2023-05-28T00:57:28.925Z,84.48
2023-05-28T00:58:21.643Z,85.00
2023-05-28T00:59:13.547Z,85.15
2023-05-28T01:00:05.733Z,85.01
2023-05-28T01:00:57.447Z,85.27
2023-05-28T01:01:49.183Z,85.59
2023-05-28T01:02:41.131Z,85.43
2023-05-28T01:03:33.391Z,85.02
2023-05-28T01:04:25.653Z,85.10
2023-05-28T01:05:18.155Z,85.36
2023-05-28T01:06:13.603Z,85.25
2023-05-28T01:07:05.706Z,85.24
2023-05-28T01:07:57.601Z,85.30
2023-05-28T01:08:50.669Z,85.44
2023-05-28T01:09:42.156Z,85.63
2023-05-28T01:10:36.385Z,85.62
2023-05-28T01:11:31.381Z,86.08
2023-05-28T01:12:26.906Z,86.01
2023-05-28T01:13:20.836Z,86.05
2023-05-28T01:14:14.325Z,86.12
2023-05-28T01:15:06.704Z,86.17
2023-05-28T01:16:05.984Z,86.34
2023-05-28T01:16:59.631Z,86.59
2023-05-28T01:17:59.379Z,86.86
2023-05-28T01:18:56.395Z,86.94
2023-05-28T01:19:50.895Z,86.96
2023-05-28T01:20:42.588Z,87.01
2023-05-28T01:21:41.115Z,86.82
2023-05-28T01:22:41.616Z,86.67
2023-05-28T01:23:44.810Z,86.64
2023-05-28T01:24:39.007Z,86.70
2023-05-28T01:25:32.063Z,86.87
2023-05-28T01:26:26.817Z,86.66
2023-05-28T01:27:19.293Z,86.65
2023-05-28T01:28:14.121Z,86.76
2023-05-28T01:29:16.720Z,87.03
2023-05-28T01:30:15.898Z,87.02
2023-05-28T01:31:10.848Z,87.41
2023-05-28T01:32:02.373Z,87.24
2023-05-28T01:32:55.136Z,87.15
2023-05-28T01:33:47.473Z,86.60
2023-05-28T01:34:39.150Z,86.47
2023-05-28T01:35:30.618Z,86.42
2023-05-28T01:36:31.865Z,86.53
2023-05-28T01:37:26.107Z,86.52
2023-05-28T01:38:24.554Z,87.02
2023-05-28T01:39:20.270Z,87.12
2023-05-28T01:40:15.566Z,87.14
2023-05-28T01:41:08.814Z,87.38
2023-05-28T01:42:03.815Z,87.23
2023-05-28T01:42:58.752Z,87.07
2023-05-28T01:43:51.112Z,86.80
2023-05-28T01:44:44.786Z,86.59
2023-05-28T01:45:37.235Z,86.52
2023-05-28T01:46:30.826Z,86.74
2023-05-28T01:47:23.583Z,86.86
2023-05-28T01:48:16.438Z,86.59
2023-05-28T01:49:10.570Z,86.40
2023-05-28T01:50:02.170Z,86.95
2023-05-28T01:50:55.117Z,86.99
2023-05-28T01:51:46.566Z,86.90
2023-05-28T01:52:39.719Z,86.75
2023-05-28T01:53:31.245Z,86.97
2023-05-28T01:54:23.634Z,86.61
2023-05-28T01:55:15.473Z,86.35
2023-05-28T01:56:10.426Z,86.55
2023-05-28T01:57:03.060Z,86.69
2023-05-28T01:57:56.855Z,86.46
2023-05-28T01:58:48.435Z,86.69
2023-05-28T01:59:39.972Z,86.76
2023-05-28T02:00:36.455Z,87.07
2023-05-28T02:01:34.601Z,87.22
2023-05-28T02:02:28.862Z,87.29
2023-05-28T02:03:20.547Z,87.09
2023-05-28T02:04:12.181Z,86.96
2023-05-28T02:05:04.934Z,87.36
2023-05-28T02:05:56.583Z,87.24
2023-05-28T02:06:48.369Z,87.03
2023-05-28T02:07:39.851Z,86.71
2023-05-28T02:08:31.318Z,86.92
2023-05-28T02:09:27.220Z,86.80
2023-05-28T02:10:18.681Z,86.18
2023-05-28T02:11:10.090Z,85.99
2023-05-28T02:12:04.207Z,85.71
2023-05-28T02:12:56.031Z,85.78
2023-05-28T02:13:47.561Z,85.78
2023-05-28T02:14:39.345Z,86.22
2023-05-28T02:15:30.994Z,86.19
2023-05-28T02:16:23.449Z,86.44
2023-05-28T02:17:15.134Z,86.36
2023-05-28T02:18:07.178Z,86.56
2023-05-28T02:19:00.179Z,86.83
2023-05-28T02:19:51.732Z,86.78
2023-05-28T02:20:43.848Z,86.97
2023-05-28T02:21:37.147Z,87.87
2023-05-28T02:22:28.640Z,88.06
2023-05-28T02:23:20.394Z,88.31
2023-05-28T02:24:12.865Z,88.22
2023-05-28T02:25:04.969Z,87.91
2023-05-28T02:25:57.474Z,88.48
2023-05-28T02:26:49.147Z,88.41
2023-05-28T02:27:40.644Z,88.51
2023-05-28T02:28:32.097Z,88.68
2023-05-28T02:29:23.532Z,88.69
2023-05-28T02:30:17.463Z,89.25
2023-05-28T02:31:08.901Z,88.88
2023-05-28T02:32:01.902Z,88.97
2023-05-28T02:32:53.674Z,89.25
2023-05-28T02:33:45.239Z,88.95
2023-05-28T02:34:36.962Z,88.89
2023-05-28T02:35:28.953Z,88.90
2023-05-28T02:36:24.122Z,89.30
2023-05-28T02:37:16.799Z,88.94
2023-05-28T02:38:09.295Z,89.35
2023-05-28T02:39:01.177Z,89.46
2023-05-28T02:39:52.722Z,89.26
2023-05-28T02:40:44.430Z,89.57
2023-05-28T02:41:36.261Z,89.61
2023-05-28T02:42:27.833Z,89.51
2023-05-28T02:43:19.301Z,89.64
2023-05-28T02:44:12.228Z,89.97
2023-05-28T02:45:05.229Z,89.85
2023-05-28T02:46:00.461Z,90.10
2023-05-28T02:46:51.922Z,90.13
2023-05-28T02:47:43.430Z,90.49
2023-05-28T02:48:35.400Z,90.56
2023-05-28T02:49:28.098Z,90.52
2023-05-28T02:50:19.554Z,90.53
2023-05-28T02:51:29.862Z,90.47
2023-05-28T02:52:50.369Z,90.54
2023-05-28T02:53:42.134Z,90.37
2023-05-28T02:54:34.065Z,91.39
2023-05-28T02:55:25.747Z,91.43
2023-05-28T02:56:17.548Z,91.83
2023-05-28T02:57:10.520Z,92.31
2023-05-28T02:58:02.296Z,92.43
2023-05-28T02:58:54.423Z,92.66
2023-05-28T02:59:46.076Z,92.62
2023-05-28T03:00:37.907Z,92.75
2023-05-28T03:01:29.538Z,92.65
2023-05-28T03:02:26.269Z,92.48
2023-05-28T03:03:20.396Z,92.69
2023-05-28T03:04:13.623Z,92.86
2023-05-28T03:05:06.141Z,92.63
2023-05-28T03:05:58.085Z,92.33
2023-05-28T03:06:51.965Z,92.28
2023-05-28T03:07:43.444Z,92.21
2023-05-28T03:08:35.059Z,92.35
2023-05-28T03:09:26.498Z,92.20
2023-05-28T03:10:18.870Z,92.09
2023-05-28T03:11:10.348Z,92.59
2023-05-28T03:12:04.605Z,93.00
2023-05-28T03:12:57.739Z,92.80
2023-05-28T03:13:49.213Z,92.74
2023-05-28T03:14:41.229Z,92.59
2023-05-28T03:15:33.876Z,92.08
2023-05-28T03:16:27.929Z,92.12
2023-05-28T03:17:19.984Z,92.05
2023-05-28T03:18:12.846Z,92.23
2023-05-28T03:19:09.238Z,92.33
2023-05-28T03:20:04.588Z,92.13
2023-05-28T03:20:56.223Z,92.05
2023-05-28T03:21:47.910Z,92.35
2023-05-28T03:22:43.820Z,92.64
2023-05-28T03:23:35.578Z,92.57
2023-05-28T03:24:36.161Z,92.58
2023-05-28T03:25:34.563Z,92.80
2023-05-28T03:26:26.386Z,92.64
2023-05-28T03:27:18.235Z,92.96
2023-05-28T03:28:09.797Z,93.13
2023-05-28T03:29:13.779Z,93.53
2023-05-28T03:30:20.071Z,93.32
2023-05-28T03:31:15.157Z,93.67
2023-05-28T03:32:07.138Z,93.76
2023-05-28T03:32:58.705Z,93.50
2023-05-28T03:33:50.216Z,93.55
2023-05-28T03:34:41.793Z,93.19
2023-05-28T03:35:33.283Z,93.32
2023-05-28T03:36:27.496Z,93.34
2023-05-28T03:37:19.179Z,93.34
2023-05-28T03:38:10.930Z,93.52
2023-05-28T03:39:02.406Z,93.35
2023-05-28T03:39:55.089Z,93.30
2023-05-28T03:40:47.651Z,92.91
2023-05-28T03:41:39.248Z,92.67
2023-05-28T03:42:32.634Z,92.78
2023-05-28T03:43:24.626Z,92.53
2023-05-28T03:44:18.406Z,92.35
2023-05-28T03:45:10.878Z,92.34
2023-05-28T03:46:03.225Z,92.46
2023-05-28T03:46:54.822Z,92.39
2023-05-28T03:47:47.675Z,92.31
2023-05-28T03:48:39.974Z,92.51
2023-05-28T03:49:32.304Z,92.54
2023-05-28T03:50:27.637Z,92.70
2023-05-28T03:51:19.250Z,92.52
2023-05-28T03:52:11.524Z,92.67
2023-05-28T03:53:13.015Z,92.90
2023-05-28T03:54:07.210Z,92.93
2023-05-28T03:55:00.201Z,93.18
2023-05-28T03:55:52.616Z,93.11
2023-05-28T03:56:45.519Z,92.65
2023-05-28T03:57:37.475Z,92.50
2023-05-28T03:58:28.977Z,92.66
2023-05-28T03:59:24.750Z,92.65
2023-05-28T04:00:18.810Z,92.92
2023-05-28T04:01:10.265Z,92.77
2023-05-28T04:02:01.827Z,92.73
2023-05-28T04:02:53.751Z,92.75
2023-05-28T04:03:45.697Z,92.71
2023-05-28T04:04:37.283Z,92.07
2023-05-28T04:05:28.891Z,92.17
2023-05-28T04:06:20.807Z,92.33
2023-05-28T04:07:12.531Z,92.27
2023-05-28T04:08:04.933Z,92.42
2023-05-28T04:08:58.299Z,92.22
2023-05-28T04:09:49.955Z,92.22
2023-05-28T04:10:41.464Z,92.14
2023-05-28T04:11:35.702Z,92.11
2023-05-28T04:12:27.635Z,92.01
2023-05-28T04:13:19.087Z,92.22
2023-05-28T04:14:10.600Z,92.11
2023-05-28T04:15:04.896Z,91.93
2023-05-28T04:15:56.820Z,92.26
2023-05-28T04:16:51.402Z,92.13
2023-05-28T04:17:43.451Z,92.17
2023-05-28T04:18:34.975Z,92.55
2023-05-28T04:19:27.132Z,92.72
2023-05-28T04:20:18.936Z,92.61
2023-05-28T04:21:13.845Z,92.29
2023-05-28T04:22:06.175Z,92.19
2023-05-28T04:22:57.750Z,92.13
2023-05-28T04:23:49.860Z,91.98
2023-05-28T04:24:42.160Z,91.76
2023-05-28T04:25:35.510Z,91.79
2023-05-28T04:26:27.422Z,91.85
2023-05-28T04:27:21.158Z,91.77
2023-05-28T04:28:12.646Z,91.83
2023-05-28T04:29:04.334Z,91.94
2023-05-28T04:29:57.824Z,91.88
2023-05-28T04:30:49.776Z,91.81
2023-05-28T04:31:45.407Z,91.84
2023-05-28T04:32:40.104Z,91.79
2023-05-28T04:33:31.786Z,91.97
2023-05-28T04:34:25.509Z,91.87
2023-05-28T04:35:20.651Z,92.11
2023-05-28T04:36:14.459Z,92.14
2023-05-28T04:37:06.174Z,92.08
2023-05-28T04:37:57.566Z,92.25
2023-05-28T04:38:49.044Z,92.05
2023-05-28T04:39:40.499Z,91.94
2023-05-28T04:40:33.480Z,91.65
2023-05-28T04:41:26.194Z,92.11
2023-05-28T04:42:19.197Z,92.04
2023-05-28T04:43:10.901Z,91.99
2023-05-28T04:44:10.593Z,91.76
2023-05-28T04:45:05.779Z,91.76
2023-05-28T04:45:59.804Z,91.63
2023-05-28T04:46:55.077Z,91.73
2023-05-28T04:47:46.661Z,91.65
2023-05-28T04:48:38.184Z,91.50
2023-05-28T04:49:30.518Z,91.63
2023-05-28T04:50:24.388Z,91.52
2023-05-28T04:51:21.785Z,91.67
2023-05-28T04:52:13.260Z,91.75
2023-05-28T04:53:04.766Z,91.65
2023-05-28T04:53:57.417Z,91.78
2023-05-28T04:54:48.879Z,91.68
2023-05-28T04:55:41.118Z,91.60
2023-05-28T04:56:32.789Z,91.48
2023-05-28T04:57:24.495Z,91.42
2023-05-28T04:58:16.917Z,91.59
2023-05-28T04:59:10.891Z,91.35
2023-05-28T05:00:04.436Z,91.34
2023-05-28T05:00:56.997Z,91.27
2023-05-28T05:01:49.315Z,90.95
2023-05-28T05:02:44.581Z,90.80
2023-05-28T05:03:36.747Z,90.58
2023-05-28T05:04:30.124Z,90.54
2023-05-28T05:05:21.716Z,90.31
2023-05-28T05:06:13.186Z,90.15
2023-05-28T05:07:05.119Z,89.89
2023-05-28T05:07:57.538Z,89.37
2023-05-28T05:08:49.456Z,89.24
2023-05-28T05:09:41.308Z,88.86
2023-05-28T05:10:32.965Z,88.34
2023-05-28T05:11:27.222Z,88.38
2023-05-28T05:12:19.614Z,87.86
2023-05-28T05:13:13.825Z,87.24
2023-05-28T05:14:08.518Z,86.80
2023-05-28T05:14:59.943Z,87.00
2023-05-28T05:15:52.618Z,87.08
2023-05-28T05:16:47.086Z,86.95
2023-05-28T05:17:38.624Z,86.89
2023-05-28T05:18:31.710Z,86.40
2023-05-28T05:19:23.137Z,86.53
2023-05-28T05:20:14.704Z,86.15
2023-05-28T05:21:06.357Z,85.99
2023-05-28T05:21:57.777Z,85.84
2023-05-28T05:22:49.201Z,85.48
2023-05-28T05:23:41.145Z,85.17
2023-05-28T05:24:33.292Z,84.93
2023-05-28T05:25:24.784Z,84.56
2023-05-28T05:26:18.388Z,84.66
2023-05-28T05:27:10.159Z,84.64
2023-05-28T05:28:01.686Z,84.42
2023-05-28T05:28:54.621Z,84.14
2023-05-28T05:29:46.371Z,83.80
2023-05-28T05:30:38.080Z,83.96
2023-05-28T05:31:34.817Z,83.48
2023-05-28T05:32:26.434Z,83.15
2023-05-28T05:33:18.747Z,82.83
2023-05-28T05:34:36.323Z,82.19
2023-05-28T05:35:46.741Z,81.68
2023-05-28T05:36:53.498Z,81.76
2023-05-28T05:38:03.763Z,81.43
2023-05-28T05:39:15.592Z,81.05
2023-05-28T05:40:36.524Z,80.47
2023-05-28T05:41:39.405Z,80.47
2023-05-28T05:42:42.021Z,80.12
2023-05-28T05:43:34.429Z,80.12
2023-05-28T05:44:26.113Z,80.04
2023-05-28T05:45:17.578Z,79.41
2023-05-28T05:46:10.633Z,79.61
2023-05-28T05:47:02.186Z,79.54
2023-05-28T05:47:53.742Z,78.99
2023-05-28T05:48:45.321Z,79.15
2023-05-28T05:49:37.843Z,78.28
2023-05-28T05:50:29.478Z,77.70
2023-05-28T05:51:22.136Z,77.85
2023-05-28T05:52:13.838Z,77.41
2023-05-28T05:53:09.398Z,76.51
2023-05-28T05:54:00.891Z,75.62
2023-05-28T05:54:53.065Z,75.33
2023-05-28T05:55:45.113Z,74.99
2023-05-28T05:56:36.845Z,74.70
2023-05-28T05:57:28.405Z,74.55
2023-05-28T05:58:20.998Z,74.02
2023-05-28T05:59:12.654Z,73.75
2023-05-28T06:00:09.491Z,73.52
2023-05-28T06:01:11.045Z,73.65
2023-05-28T06:02:02.759Z,74.12
2023-05-28T06:02:57.372Z,74.04
2023-05-28T06:04:18.195Z,74.15
2023-05-28T06:05:35.154Z,74.36
2023-05-28T06:06:40.470Z,74.17
2023-05-28T06:07:54.772Z,74.17
2023-05-28T06:09:05.590Z,73.64
2023-05-28T06:10:10.264Z,73.45
2023-05-28T06:11:06.354Z,73.18
2023-05-28T06:11:58.112Z,72.90
2023-05-28T06:12:49.604Z,72.11
2023-05-28T06:13:41.417Z,72.57
2023-05-28T06:14:33.506Z,71.86
2023-05-28T06:15:25.900Z,70.73
2023-05-28T06:16:17.605Z,71.02
2023-05-28T06:17:10.316Z,70.82
2023-05-28T06:18:02.784Z,71.45
2023-05-28T06:18:55.460Z,71.12
2023-05-28T06:19:50.198Z,70.89
2023-05-28T06:20:43.662Z,70.64
2023-05-28T06:21:37.817Z,70.73
2023-05-28T06:22:30.989Z,70.42
2023-05-28T06:23:22.605Z,70.64
2023-05-28T06:24:14.861Z,70.91
2023-05-28T06:25:09.684Z,70.90
2023-05-28T06:26:04.605Z,70.94
2023-05-28T06:26:56.048Z,71.41
2023-05-28T06:27:50.775Z,71.96
2023-05-28T06:28:42.483Z,71.87
2023-05-28T06:29:33.944Z,71.06
2023-05-28T06:30:28.587Z,70.72
2023-05-28T06:31:22.945Z,70.45
2023-05-28T06:32:15.715Z,70.83
2023-05-28T06:33:10.404Z,71.13
2023-05-28T06:34:03.759Z,70.81
2023-05-28T06:34:55.359Z,69.82
2023-05-28T06:35:47.159Z,69.82
2023-05-28T06:36:39.403Z,69.80
2023-05-28T06:37:30.879Z,69.59
2023-05-28T06:38:22.789Z,69.62
2023-05-28T06:39:14.295Z,69.61
2023-05-28T06:40:11.886Z,68.66
2023-05-28T06:41:03.983Z,69.03
2023-05-28T06:42:01.972Z,68.79
2023-05-28T06:43:06.016Z,68.26
2023-05-28T06:44:01.279Z,68.84
2023-05-28T06:45:02.060Z,68.50
2023-05-28T06:45:54.096Z,68.51
2023-05-28T06:46:48.918Z,68.35
2023-05-28T06:47:40.704Z,68.22
2023-05-28T06:48:33.290Z,67.83
2023-05-28T06:49:24.736Z,68.01
2023-05-28T06:50:19.971Z,67.85
2023-05-28T06:51:15.914Z,68.83
2023-05-28T06:52:08.054Z,70.11
2023-05-28T06:53:02.768Z,69.47
2023-05-28T06:53:54.272Z,69.96
2023-05-28T06:54:50.689Z,70.07
2023-05-28T06:55:44.029Z,68.87
2023-05-28T06:56:56.549Z,68.86
2023-05-28T06:57:50.669Z,69.11
2023-05-28T06:59:17.202Z,68.57
2023-05-28T07:00:28.386Z,67.76
2023-05-28T07:01:31.474Z,67.01
2023-05-28T07:02:48.973Z,67.28
2023-05-28T07:04:03.764Z,66.62
2023-05-28T07:05:05.566Z,65.91
2023-05-28T07:05:59.522Z,65.83
2023-05-28T07:06:51.265Z,65.57
2023-05-28T07:07:50.106Z,65.53
2023-05-28T07:08:45.256Z,65.39
2023-05-28T07:09:37.525Z,64.74
2023-05-28T07:10:29.638Z,64.93
2023-05-28T07:11:21.477Z,65.14
2023-05-28T07:12:12.953Z,65.16
2023-05-28T07:13:10.099Z,64.58
2023-05-28T07:14:01.714Z,64.36
2023-05-28T07:14:53.395Z,64.09
2023-05-28T07:15:45.541Z,64.28
2023-05-28T07:16:37.319Z,64.58
2023-05-28T07:17:29.377Z,64.22
2023-05-28T07:18:21.196Z,63.66
2023-05-28T07:19:12.691Z,62.52
2023-05-28T07:20:07.800Z,62.85
2023-05-28T07:21:21.681Z,62.02
2023-05-28T07:22:13.266Z,61.81
2023-05-28T07:23:05.832Z,62.05
2023-05-28T07:23:57.379Z,62.34
2023-05-28T07:24:51.952Z,61.93
2023-05-28T07:25:44.325Z,62.02
2023-05-28T07:26:36.474Z,61.73
2023-05-28T07:27:28.489Z,60.28
2023-05-28T07:28:20.038Z,59.34
2023-05-28T07:29:16.461Z,58.93
2023-05-28T07:30:09.057Z,58.50
2023-05-28T07:31:02.729Z,57.94
2023-05-28T07:31:55.080Z,58.55
2023-05-28T07:32:51.883Z,58.14
2023-05-28T07:33:43.382Z,57.29
2023-05-28T07:34:34.898Z,57.38
2023-05-28T07:35:26.675Z,57.29
2023-05-28T07:36:18.140Z,56.90
2023-05-28T07:37:11.976Z,56.94
2023-05-28T07:38:06.929Z,56.96
2023-05-28T07:38:58.444Z,56.59
2023-05-28T07:39:50.284Z,56.37
2023-05-28T07:40:42.606Z,55.39
2023-05-28T07:41:43.188Z,54.73
2023-05-28T07:42:57.604Z,55.31
2023-05-28T07:43:49.776Z,55.57
2023-05-28T07:44:44.795Z,54.53
2023-05-28T07:45:38.478Z,54.16
2023-05-28T07:46:30.946Z,54.64
2023-05-28T07:47:33.214Z,54.32
2023-05-28T07:48:38.782Z,53.28
2023-05-28T07:49:35.791Z,53.49
2023-05-28T07:50:28.047Z,52.86
2023-05-28T07:51:36.437Z,52.93
2023-05-28T07:52:34.658Z,53.52
2023-05-28T07:53:26.318Z,52.24
2023-05-28T07:54:17.828Z,52.55
2023-05-28T07:55:11.141Z,52.82
2023-05-28T07:56:03.699Z,53.18
2023-05-28T07:56:57.232Z,53.15
2023-05-28T07:57:54.128Z,53.15
2023-05-28T07:58:46.612Z,52.94
2023-05-28T07:59:40.436Z,52.79
2023-05-28T08:00:33.692Z,53.13
2023-05-28T08:01:27.559Z,53.67
2023-05-28T08:02:20.227Z,52.41
2023-05-28T08:03:12.601Z,51.69
2023-05-28T08:04:08.204Z,51.91
2023-05-28T08:05:03.218Z,52.50
2023-05-28T08:05:56.245Z,52.41
2023-05-28T08:06:48.053Z,52.86
2023-05-28T08:07:43.569Z,52.79
2023-05-28T08:08:35.300Z,52.45
2023-05-28T08:09:27.615Z,52.11
2023-05-28T08:10:21.981Z,51.87
2023-05-28T08:11:15.882Z,51.89
2023-05-28T08:12:07.802Z,52.61
2023-05-28T08:12:59.862Z,52.32
2023-05-28T08:13:51.373Z,52.39
2023-05-28T08:14:43.423Z,52.46
2023-05-28T08:15:36.985Z,52.41
2023-05-28T08:16:33.114Z,52.88
2023-05-28T08:17:37.246Z,52.43
2023-05-28T08:18:41.771Z,51.48
2023-05-28T08:19:33.274Z,51.80
2023-05-28T08:20:30.248Z,50.98
2023-05-28T08:21:28.076Z,51.86
2023-05-28T08:22:19.648Z,51.60
2023-05-28T08:23:12.425Z,50.77
2023-05-28T08:24:04.550Z,50.78
2023-05-28T08:24:57.231Z,50.96
2023-05-28T08:25:48.817Z,49.60
2023-05-28T08:26:45.776Z,49.09
2023-05-28T08:27:37.453Z,49.35
2023-05-28T08:28:30.822Z,48.60
2023-05-28T08:29:24.818Z,49.34
2023-05-28T08:30:23.504Z,49.48
2023-05-28T08:31:23.881Z,49.97
2023-05-28T08:32:39.676Z,49.38
2023-05-28T08:33:31.286Z,47.95
2023-05-28T08:34:23.449Z,48.64
2023-05-28T08:35:16.572Z,50.55
2023-05-28T08:36:08.171Z,50.60
2023-05-28T08:37:00.596Z,50.08
2023-05-28T08:37:59.652Z,50.27
2023-05-28T08:39:00.168Z,49.89
2023-05-28T08:39:52.551Z,48.42
2023-05-28T08:40:54.593Z,48.16
2023-05-28T08:41:46.809Z,48.50
2023-05-28T08:42:44.368Z,47.66
2023-05-28T08:43:37.559Z,47.70
2023-05-28T08:44:29.145Z,48.93
2023-05-28T08:45:21.350Z,48.34
2023-05-28T08:46:16.116Z,47.77
2023-05-28T08:47:34.304Z,47.93
2023-05-28T08:48:35.684Z,47.38
2023-05-28T08:49:39.329Z,48.21
2023-05-28T08:50:41.357Z,47.53
2023-05-28T08:51:43.531Z,47.00
2023-05-28T08:52:38.359Z,47.87
2023-05-28T08:53:41.640Z,48.29
2023-05-28T08:54:35.263Z,48.05
2023-05-28T08:55:26.674Z,46.86
2023-05-28T08:56:28.215Z,46.04
2023-05-28T08:57:22.119Z,46.84
2023-05-28T08:58:25.216Z,45.57
2023-05-28T08:59:17.447Z,46.04
2023-05-28T09:00:14.730Z,47.33
2023-05-28T09:01:33.898Z,47.71
2023-05-28T09:02:34.563Z,46.03
2023-05-28T09:03:26.455Z,45.75
2023-05-28T09:04:20.641Z,44.60
2023-05-28T09:05:13.801Z,45.42
2023-05-28T09:06:05.241Z,44.91
2023-05-28T09:06:57.135Z,44.89
2023-05-28T09:08:02.797Z,45.31
2023-05-28T09:08:54.705Z,45.32
2023-05-28T09:10:27.131Z,44.97
2023-05-28T09:11:19.714Z,44.63
2023-05-28T09:12:13.430Z,44.72
2023-05-28T09:13:08.672Z,43.24
2023-05-28T09:14:10.068Z,43.90
2023-05-28T09:15:02.141Z,43.05
2023-05-28T09:15:55.951Z,44.15
2023-05-28T09:16:47.411Z,44.34
2023-05-28T09:17:45.428Z,44.30
2023-05-28T09:18:45.475Z,43.82
2023-05-28T09:19:38.864Z,44.77
2023-05-28T09:20:30.470Z,44.42
2023-05-28T09:21:22.181Z,41.84
2023-05-28T09:22:14.017Z,42.26
2023-05-28T09:23:17.915Z,43.81
2023-05-28T09:24:32.069Z,42.72
2023-05-28T09:25:46.071Z,42.56
2023-05-28T09:26:42.463Z,41.96
2023-05-28T09:27:46.957Z,43.31
2023-05-28T09:28:44.774Z,42.40
2023-05-28T09:29:36.806Z,43.56
2023-05-28T09:30:30.397Z,44.23
2023-05-28T09:31:34.818Z,42.33
2023-05-28T09:32:26.666Z,41.25
2023-05-28T09:33:19.071Z,40.82
2023-05-28T09:34:12.994Z,42.14
2023-05-28T09:35:08.542Z,41.36
2023-05-28T09:36:01.663Z,39.66
2023-05-28T09:36:53.470Z,39.71
2023-05-28T09:37:44.854Z,38.80
2023-05-28T09:38:41.050Z,38.41
2023-05-28T09:39:34.992Z,38.55
2023-05-28T09:40:27.444Z,38.48
2023-05-28T09:41:21.193Z,38.39
2023-05-28T09:42:14.181Z,38.81
2023-05-28T09:43:06.979Z,37.33
2023-05-28T09:44:03.721Z,37.58
2023-05-28T09:44:55.140Z,37.60
2023-05-28T09:45:48.732Z,38.41
2023-05-28T09:46:40.186Z,37.77
2023-05-28T09:47:31.702Z,38.27
2023-05-28T09:48:23.217Z,37.51
2023-05-28T09:49:14.815Z,37.89
2023-05-28T09:50:08.882Z,38.67
2023-05-28T09:51:05.483Z,36.68
2023-05-28T09:52:03.669Z,37.04
2023-05-28T09:52:58.251Z,36.08
2023-05-28T09:54:01.325Z,37.20
2023-05-28T09:54:56.341Z,39.77
2023-05-28T09:55:48.327Z,42.51
2023-05-28T09:56:43.336Z,41.58
2023-05-28T09:57:39.270Z,43.97
2023-05-28T09:58:35.477Z,37.87
2023-05-28T09:59:28.115Z,36.31
2023-05-28T10:00:27.337Z,39.11
2023-05-28T10:01:26.026Z,40.88
2023-05-28T10:02:38.964Z,38.31
2023-05-28T10:03:45.121Z,35.71
2023-05-28T10:04:39.311Z,32.00
2023-05-28T10:05:34.527Z,32.70
2023-05-28T10:06:27.084Z,33.16
2023-05-28T10:07:22.919Z,34.35
2023-05-28T10:08:17.073Z,35.75
2023-05-28T10:09:17.223Z,36.83
2023-05-28T10:10:13.548Z,38.19
2023-05-28T10:11:11.848Z,34.77
2023-05-28T10:12:11.490Z,39.17
2023-05-28T10:13:03.316Z,39.16
2023-05-28T10:13:57.211Z,35.54
2023-05-28T10:14:53.065Z,37.43
2023-05-28T10:15:46.422Z,33.59
2023-05-28T10:16:39.146Z,34.33
2023-05-28T10:17:31.088Z,37.39
2023-05-28T10:18:26.342Z,34.37
2023-05-28T10:19:18.677Z,33.82
2023-05-28T10:20:15.179Z,32.76
2023-05-28T10:21:08.561Z,32.53
2023-05-28T10:22:00.545Z,32.73
2023-05-28T10:22:52.401Z,32.73
2023-05-28T10:23:46.126Z,32.86
2023-05-28T10:24:37.975Z,33.05
2023-05-28T10:25:32.575Z,33.41
2023-05-28T10:26:25.835Z,35.28
2023-05-28T10:27:20.109Z,37.13
2023-05-28T10:28:15.789Z,33.37
2023-05-28T10:29:08.824Z,33.45
2023-05-28T10:30:05.117Z,32.71
2023-05-28T10:31:08.705Z,33.28
2023-05-28T10:32:01.958Z,32.11
2023-05-28T10:32:58.669Z,32.16
2023-05-28T10:33:53.138Z,32.22
2023-05-28T10:34:45.311Z,31.70
2023-05-28T10:35:55.662Z,32.16
2023-05-28T10:37:03.054Z,32.05
2023-05-28T10:38:08.879Z,33.40
2023-05-28T10:39:04.898Z,33.12
2023-05-28T10:40:03.256Z,31.66
2023-05-28T10:41:02.379Z,34.47
2023-05-28T10:41:59.548Z,34.90
2023-05-28T10:42:51.241Z,38.33
2023-05-28T10:43:46.296Z,38.66
2023-05-28T10:44:54.103Z,35.11
2023-05-28T10:45:49.978Z,35.87
2023-05-28T10:46:42.149Z,31.49
2023-05-28T10:47:38.439Z,31.09
2023-05-28T10:48:32.637Z,32.44
2023-05-28T10:49:25.048Z,32.07
2023-05-28T10:50:20.086Z,33.28
2023-05-28T10:51:11.922Z,37.88
2023-05-28T10:52:04.182Z,33.41
2023-05-28T10:53:10.080Z,32.37
2023-05-28T10:54:16.257Z,33.05
2023-05-28T10:55:10.932Z,34.20
2023-05-28T10:56:03.158Z,36.55
2023-05-28T10:57:12.548Z,39.70
2023-05-28T10:58:13.740Z,39.75
2023-05-28T10:59:17.607Z,36.91
2023-05-28T11:00:14.506Z,34.37
2023-05-28T11:01:12.481Z,33.13
2023-05-28T11:02:04.900Z,35.28
2023-05-28T11:02:58.737Z,32.93
2023-05-28T11:03:55.844Z,38.25
2023-05-28T11:04:55.055Z,33.41
2023-05-28T11:05:46.671Z,32.41
2023-05-28T11:06:41.228Z,32.67
2023-05-28T11:07:34.636Z,32.76
2023-05-28T11:08:26.396Z,32.71
2023-05-28T11:09:20.255Z,33.46
2023-05-28T11:10:19.990Z,33.92
2023-05-28T11:11:18.704Z,34.02
2023-05-28T11:12:10.526Z,33.64
2023-05-28T11:13:05.052Z,34.37
2023-05-28T11:13:56.516Z,34.36
2023-05-28T11:14:49.017Z,34.45
2023-05-28T11:15:41.910Z,33.62
2023-05-28T11:16:35.532Z,33.60
2023-05-28T11:17:27.201Z,34.18
2023-05-28T11:18:18.638Z,33.67
2023-05-28T11:19:12.137Z,33.31
2023-05-28T11:20:04.902Z,33.32
2023-05-28T11:21:03.882Z,33.63
2023-05-28T11:21:59.491Z,33.86
2023-05-28T11:22:51.385Z,34.68
2023-05-28T11:23:42.947Z,36.28
2023-05-28T11:24:50.682Z,34.43
2023-05-28T11:25:46.540Z,34.10
2023-05-28T11:26:38.330Z,33.68
2023-05-28T11:27:31.538Z,33.94
2023-05-28T11:28:23.084Z,33.07
2023-05-28T11:29:16.513Z,33.40
2023-05-28T11:30:17.385Z,32.67
2023-05-28T11:31:09.196Z,33.03
2023-05-28T11:32:03.001Z,32.91
2023-05-28T11:32:55.527Z,32.65
2023-05-28T11:33:50.797Z,32.43
2023-05-28T11:34:42.445Z,32.91
2023-05-28T11:35:38.149Z,32.46
2023-05-28T11:36:30.124Z,32.37
2023-05-28T11:37:34.708Z,33.00
2023-05-28T11:38:28.446Z,36.08
2023-05-28T11:39:19.840Z,37.80
2023-05-28T11:40:14.938Z,33.00
2023-05-28T11:41:07.576Z,36.35
2023-05-28T11:42:01.416Z,34.33
2023-05-28T11:43:01.068Z,34.52
2023-05-28T11:43:52.479Z,33.23